sensor_id;sensor_type;location;lat;lon;timestamp;pressure;altitude;pressure_sealevel;temperature;humidity
79129;BME280;68529;43.286;23.360;2023-06-22T00:02:16;99430.41;;;22.44;55.80
79129;BME280;68529;43.286;23.360;2023-06-22T00:04:41;99429.66;;;22.42;56.21
79129;BME280;68529;43.286;23.360;2023-06-22T00:07:07;99424.44;;;22.41;56.31
79129;BME280;68529;43.286;23.360;2023-06-22T00:09:33;99424.44;;;22.41;56.22
79129;BME280;68529;43.286;23.360;2023-06-22T00:11:59;99425.53;;;22.38;55.78
79129;BME280;68529;43.286;23.360;2023-06-22T00:14:24;99426.97;;;22.31;56.21
79129;BME280;68529;43.286;23.360;2023-06-22T00:16:49;99437.44;;;22.34;56.52
79129;BME280;68529;43.286;23.360;2023-06-22T00:19:22;99432.56;;;22.39;56.51
79129;BME280;68529;43.286;23.360;2023-06-22T00:21:48;99430.41;;;22.44;56.57
79129;BME280;68529;43.286;23.360;2023-06-22T00:24:18;99434.91;;;22.44;56.60
79129;BME280;68529;43.286;23.360;2023-06-22T00:26:43;99429.56;;;22.44;56.54
79129;BME280;68529;43.286;23.360;2023-06-22T00:29:09;99429.66;;;22.42;56.69
79129;BME280;68529;43.286;23.360;2023-06-22T00:31:34;99432.81;;;22.36;56.57
79129;BME280;68529;43.286;23.360;2023-06-22T00:33:59;99440.25;;;22.22;56.76
79129;BME280;68529;43.286;23.360;2023-06-22T00:36:25;99446.81;;;22.18;57.34
79129;BME280;68529;43.286;23.360;2023-06-22T00:38:50;99448.28;;;22.22;57.20
79129;BME280;68529;43.286;23.360;2023-06-22T00:41:17;99450.22;;;22.20;57.08
79129;BME280;68529;43.286;23.360;2023-06-22T00:43:42;99452.31;;;22.16;57.33
79129;BME280;68529;43.286;23.360;2023-06-22T00:46:08;99454.84;;;22.18;57.75
79129;BME280;68529;43.286;23.360;2023-06-22T00:48:33;99460.44;;;22.15;57.28
79129;BME280;68529;43.286;23.360;2023-06-22T00:50:59;99455.06;;;22.15;57.32
79129;BME280;68529;43.286;23.360;2023-06-22T00:53:25;99449.00;;;22.13;57.68
79129;BME280;68529;43.286;23.360;2023-06-22T00:55:50;99456.31;;;22.11;57.28
79129;BME280;68529;43.286;23.360;2023-06-22T00:58:19;99445.81;;;21.96;57.77
79129;BME280;68529;43.286;23.360;2023-06-22T01:00:47;99447.41;;;21.88;58.15
79129;BME280;68529;43.286;23.360;2023-06-22T01:03:13;99445.03;;;21.83;58.06
79129;BME280;68529;43.286;23.360;2023-06-22T01:05:39;99444.78;;;21.86;58.54
79129;BME280;68529;43.286;23.360;2023-06-22T01:11:53;99439.38;;;21.88;58.35
79129;BME280;68529;43.286;23.360;2023-06-22T01:14:29;99446.00;;;21.82;58.53
79129;BME280;68529;43.286;23.360;2023-06-22T01:16:59;99455.00;;;21.81;58.56
79129;BME280;68529;43.286;23.360;2023-06-22T01:19:39;99457.56;;;21.83;58.42
79129;BME280;68529;43.286;23.360;2023-06-22T01:22:10;99462.16;;;21.81;58.87
79129;BME280;68529;43.286;23.360;2023-06-22T01:25:10;99459.38;;;21.82;58.79
79129;BME280;68529;43.286;23.360;2023-06-22T01:27:56;99472.84;;;21.81;58.67
79129;BME280;68529;43.286;23.360;2023-06-22T01:30:27;99466.53;;;21.71;58.87
79129;BME280;68529;43.286;23.360;2023-06-22T01:32:56;99468.69;;;21.66;59.03
79129;BME280;68529;43.286;23.360;2023-06-22T01:35:22;99470.50;;;21.65;59.52
79129;BME280;68529;43.286;23.360;2023-06-22T01:37:49;99470.38;;;21.67;59.03
79129;BME280;68529;43.286;23.360;2023-06-22T01:40:15;99475.72;;;21.67;58.83
79129;BME280;68529;43.286;23.360;2023-06-22T01:42:41;99471.47;;;21.64;59.10
79129;BME280;68529;43.286;23.360;2023-06-22T01:45:10;99470.75;;;21.62;59.11
79129;BME280;68529;43.286;23.360;2023-06-22T01:47:36;99472.56;;;21.62;59.33
79129;BME280;68529;43.286;23.360;2023-06-22T01:50:03;99478.91;;;21.61;59.18
79129;BME280;68529;43.286;23.360;2023-06-22T01:52:28;99471.16;;;21.45;59.27
79129;BME280;68529;43.286;23.360;2023-06-22T01:54:54;99458.75;;;21.44;59.33
79129;BME280;68529;43.286;23.360;2023-06-22T01:57:19;99464.00;;;21.45;59.63
79129;BME280;68529;43.286;23.360;2023-06-22T02:00:04;99457.94;;;21.43;59.47
79129;BME280;68529;43.286;23.360;2023-06-22T02:02:43;99459.00;;;21.41;59.47
79129;BME280;68529;43.286;23.360;2023-06-22T02:05:12;99469.94;;;21.38;59.32
79129;BME280;68529;43.286;23.360;2023-06-22T02:07:49;99458.22;;;21.28;59.69
79129;BME280;68529;43.286;23.360;2023-06-22T02:10:19;99451.63;;;21.21;59.79
79129;BME280;68529;43.286;23.360;2023-06-22T02:12:46;99451.44;;;21.11;59.76
79129;BME280;68529;43.286;23.360;2023-06-22T02:15:13;99454.97;;;21.12;60.21
79129;BME280;68529;43.286;23.360;2023-06-22T02:17:39;99458.91;;;21.19;59.98
79129;BME280;68529;43.286;23.360;2023-06-22T02:20:12;99458.78;;;21.20;59.79
79129;BME280;68529;43.286;23.360;2023-06-22T02:22:38;99456.75;;;21.24;59.45
79129;BME280;68529;43.286;23.360;2023-06-22T02:25:04;99455.88;;;21.23;59.58
79129;BME280;68529;43.286;23.360;2023-06-22T02:27:29;99461.00;;;21.26;59.63
79129;BME280;68529;43.286;23.360;2023-06-22T02:29:55;99462.59;;;21.29;58.88
79129;BME280;68529;43.286;23.360;2023-06-22T02:32:20;99460.78;;;21.29;59.52
79129;BME280;68529;43.286;23.360;2023-06-22T02:34:45;99459.56;;;21.33;59.24
79129;BME280;68529;43.286;23.360;2023-06-22T02:37:13;99454.97;;;21.35;59.09
79129;BME280;68529;43.286;23.360;2023-06-22T02:39:40;99465.66;;;21.35;59.27
79129;BME280;68529;43.286;23.360;2023-06-22T02:42:05;99475.28;;;21.38;58.67
79129;BME280;68529;43.286;23.360;2023-06-22T02:44:31;99475.28;;;21.38;58.58
79129;BME280;68529;43.286;23.360;2023-06-22T02:46:56;99480.09;;;21.33;58.81
79129;BME280;68529;43.286;23.360;2023-06-22T02:49:22;99476.69;;;21.31;58.64
79129;BME280;68529;43.286;23.360;2023-06-22T02:51:48;99481.06;;;21.32;59.04
79129;BME280;68529;43.286;23.360;2023-06-22T02:54:13;99483.28;;;21.38;59.11
79129;BME280;68529;43.286;23.360;2023-06-22T02:56:41;99494.59;;;21.41;58.73
79129;BME280;68529;43.286;23.360;2023-06-22T02:59:09;99505.41;;;21.40;58.87
79129;BME280;68529;43.286;23.360;2023-06-22T03:01:36;99502.81;;;21.38;59.10
79129;BME280;68529;43.286;23.360;2023-06-22T03:04:09;99500.91;;;21.40;59.32
79129;BME280;68529;43.286;23.360;2023-06-22T03:06:35;99499.09;;;21.41;59.64
79129;BME280;68529;43.286;23.360;2023-06-22T03:09:04;99499.31;;;21.38;59.38
79129;BME280;68529;43.286;23.360;2023-06-22T03:11:30;99507.22;;;21.39;59.43
79129;BME280;68529;43.286;23.360;2023-06-22T03:13:56;99500.78;;;21.42;59.62
79129;BME280;68529;43.286;23.360;2023-06-22T03:16:21;99504.72;;;21.49;59.46
79129;BME280;68529;43.286;23.360;2023-06-22T03:18:47;99513.25;;;21.54;59.06
79129;BME280;68529;43.286;23.360;2023-06-22T03:21:12;99509.84;;;21.52;59.03
79129;BME280;68529;43.286;23.360;2023-06-22T03:23:38;99511.75;;;21.50;59.43
79129;BME280;68529;43.286;23.360;2023-06-22T03:26:03;99512.84;;;21.47;59.52
79129;BME280;68529;43.286;23.360;2023-06-22T03:28:29;99521.63;;;21.50;59.54
79129;BME280;68529;43.286;23.360;2023-06-22T03:30:57;99523.22;;;21.52;59.61
79129;BME280;68529;43.286;23.360;2023-06-22T03:33:22;99525.88;;;21.52;59.24
79129;BME280;68529;43.286;23.360;2023-06-22T03:35:48;99532.91;;;21.53;59.48
79129;BME280;68529;43.286;23.360;2023-06-22T03:38:15;99535.72;;;21.52;59.43
79129;BME280;68529;43.286;23.360;2023-06-22T03:40:40;99518.31;;;21.46;59.73
79129;BME280;68529;43.286;23.360;2023-06-22T03:43:06;99514.78;;;21.45;59.63
79129;BME280;68529;43.286;23.360;2023-06-22T03:45:31;99513.94;;;21.45;59.48
79129;BME280;68529;43.286;23.360;2023-06-22T03:47:56;99509.31;;;21.47;59.81
79129;BME280;68529;43.286;23.360;2023-06-22T03:50:22;99498.53;;;21.48;59.21
79129;BME280;68529;43.286;23.360;2023-06-22T03:52:47;99501.06;;;21.50;59.46
79129;BME280;68529;43.286;23.360;2023-06-22T03:55:13;99506.81;;;21.57;59.50
79129;BME280;68529;43.286;23.360;2023-06-22T03:57:38;99494.69;;;21.64;59.52
79129;BME280;68529;43.286;23.360;2023-06-22T04:00:04;99497.38;;;21.75;59.31
79129;BME280;68529;43.286;23.360;2023-06-22T04:02:31;99491.72;;;21.79;58.97
79129;BME280;68529;43.286;23.360;2023-06-22T04:04:56;99499.25;;;21.85;58.88
79129;BME280;68529;43.286;23.360;2023-06-22T04:07:22;99498.84;;;21.91;58.87
79129;BME280;68529;43.286;23.360;2023-06-22T04:09:47;99489.47;;;21.97;58.95
79129;BME280;68529;43.286;23.360;2023-06-22T04:12:13;99483.53;;;22.04;59.05
79129;BME280;68529;43.286;23.360;2023-06-22T04:14:38;99489.13;;;22.13;59.00
79129;BME280;68529;43.286;23.360;2023-06-22T04:17:04;99488.44;;;22.22;59.01
79129;BME280;68529;43.286;23.360;2023-06-22T04:19:30;99489.63;;;22.29;58.68
79129;BME280;68529;43.286;23.360;2023-06-22T04:21:55;99494.03;;;22.41;58.77
79129;BME280;68529;43.286;23.360;2023-06-22T04:24:20;99491.59;;;22.49;58.90
79129;BME280;68529;43.286;23.360;2023-06-22T04:26:46;99490.25;;;22.54;58.59
79129;BME280;68529;43.286;23.360;2023-06-22T04:29:12;99492.25;;;22.64;58.40
79129;BME280;68529;43.286;23.360;2023-06-22T04:31:38;99496.75;;;22.74;58.45
79129;BME280;68529;43.286;23.360;2023-06-22T04:34:05;99501.47;;;22.82;58.39
79129;BME280;68529;43.286;23.360;2023-06-22T04:36:40;99494.78;;;22.87;58.23
79129;BME280;68529;43.286;23.360;2023-06-22T04:39:10;99493.88;;;22.98;58.39
79129;BME280;68529;43.286;23.360;2023-06-22T04:41:39;99496.44;;;23.10;58.12
79129;BME280;68529;43.286;23.360;2023-06-22T04:44:12;99501.53;;;23.25;58.05
79129;BME280;68529;43.286;23.360;2023-06-22T04:46:38;99512.97;;;23.38;57.93
79129;BME280;68529;43.286;23.360;2023-06-22T04:49:08;99516.59;;;23.48;57.91
79129;BME280;68529;43.286;23.360;2023-06-22T04:51:37;99511.91;;;23.61;57.37
79129;BME280;68529;43.286;23.360;2023-06-22T04:54:03;99510.84;;;23.73;57.45
79129;BME280;68529;43.286;23.360;2023-06-22T04:56:31;99518.16;;;23.82;57.61
79129;BME280;68529;43.286;23.360;2023-06-22T04:58:56;99527.97;;;23.93;57.36
79129;BME280;68529;43.286;23.360;2023-06-22T05:01:23;99521.97;;;24.00;57.29
79129;BME280;68529;43.286;23.360;2023-06-22T05:03:48;99533.38;;;24.13;57.68
79129;BME280;68529;43.286;23.360;2023-06-22T05:06:14;99537.72;;;24.25;57.34
79129;BME280;68529;43.286;23.360;2023-06-22T05:08:40;99535.22;;;24.33;56.95
79129;BME280;68529;43.286;23.360;2023-06-22T05:11:05;99538.94;;;24.42;56.84
79129;BME280;68529;43.286;23.360;2023-06-22T05:13:32;99539.84;;;24.52;56.97
79129;BME280;68529;43.286;23.360;2023-06-22T05:15:57;99541.31;;;24.66;56.58
79129;BME280;68529;43.286;23.360;2023-06-22T05:18:30;99535.50;;;24.81;56.95
79129;BME280;68529;43.286;23.360;2023-06-22T05:20:56;99539.63;;;24.95;56.66
79129;BME280;68529;43.286;23.360;2023-06-22T05:23:21;99531.19;;;25.09;56.58
79129;BME280;68529;43.286;23.360;2023-06-22T05:25:47;99527.38;;;25.21;56.69
79129;BME280;68529;43.286;23.360;2023-06-22T05:28:12;99535.06;;;25.26;56.69
79129;BME280;68529;43.286;23.360;2023-06-22T05:30:37;99543.72;;;25.39;56.26
79129;BME280;68529;43.286;23.360;2023-06-22T05:33:03;99550.44;;;25.54;56.13
79129;BME280;68529;43.286;23.360;2023-06-22T05:35:29;99554.41;;;25.60;55.05
79129;BME280;68529;43.286;23.360;2023-06-22T05:37:55;99554.13;;;25.72;55.74
79129;BME280;68529;43.286;23.360;2023-06-22T05:40:21;99548.19;;;25.78;56.58
79129;BME280;68529;43.286;23.360;2023-06-22T05:42:47;99556.53;;;25.94;55.10
79129;BME280;68529;43.286;23.360;2023-06-22T05:45:12;99550.00;;;25.97;55.00
79129;BME280;68529;43.286;23.360;2023-06-22T05:47:38;99549.03;;;25.98;54.96
79129;BME280;68529;43.286;23.360;2023-06-22T05:50:04;99545.91;;;26.12;55.37
79129;BME280;68529;43.286;23.360;2023-06-22T05:52:32;99544.63;;;26.07;55.19
79129;BME280;68529;43.286;23.360;2023-06-22T05:54:58;99544.19;;;26.11;55.65
79129;BME280;68529;43.286;23.360;2023-06-22T05:57:23;99546.19;;;26.19;55.90
79129;BME280;68529;43.286;23.360;2023-06-22T05:59:49;99541.13;;;26.16;55.36
79129;BME280;68529;43.286;23.360;2023-06-22T06:02:14;99542.50;;;26.20;56.45
79129;BME280;68529;43.286;23.360;2023-06-22T06:04:40;99535.97;;;26.32;56.42
79129;BME280;68529;43.286;23.360;2023-06-22T06:07:05;99541.59;;;26.48;56.87
79129;BME280;68529;43.286;23.360;2023-06-22T06:09:30;99537.47;;;26.53;56.08
79129;BME280;68529;43.286;23.360;2023-06-22T06:11:56;99539.59;;;26.59;55.62
79129;BME280;68529;43.286;23.360;2023-06-22T06:14:21;99537.28;;;26.65;56.46
79129;BME280;68529;43.286;23.360;2023-06-22T06:16:48;99538.28;;;26.63;56.44
79129;BME280;68529;43.286;23.360;2023-06-22T06:19:14;99542.56;;;26.56;56.19
79129;BME280;68529;43.286;23.360;2023-06-22T06:21:39;99539.88;;;26.56;56.61
79129;BME280;68529;43.286;23.360;2023-06-22T06:24:05;99534.75;;;26.63;56.93
79129;BME280;68529;43.286;23.360;2023-06-22T06:26:30;99531.78;;;26.66;57.04
79129;BME280;68529;43.286;23.360;2023-06-22T06:28:59;99529.03;;;26.76;54.92
79129;BME280;68529;43.286;23.360;2023-06-22T06:31:25;99536.94;;;26.87;54.22
79129;BME280;68529;43.286;23.360;2023-06-22T06:33:54;99543.47;;;26.94;53.25
79129;BME280;68529;43.286;23.360;2023-06-22T06:36:20;99542.16;;;26.98;53.15
79129;BME280;68529;43.286;23.360;2023-06-22T06:38:45;99541.47;;;26.96;53.18
79129;BME280;68529;43.286;23.360;2023-06-22T06:41:13;99547.16;;;26.93;53.60
79129;BME280;68529;43.286;23.360;2023-06-22T06:43:39;99545.03;;;26.87;54.60
79129;BME280;68529;43.286;23.360;2023-06-22T06:46:04;99545.06;;;26.77;54.68
79129;BME280;68529;43.286;23.360;2023-06-22T06:48:30;99548.63;;;26.68;55.42
79129;BME280;68529;43.286;23.360;2023-06-22T06:50:55;99549.34;;;26.60;55.67
79129;BME280;68529;43.286;23.360;2023-06-22T06:53:20;99548.22;;;26.63;55.79
79129;BME280;68529;43.286;23.360;2023-06-22T06:55:46;99550.59;;;26.85;56.56
79129;BME280;68529;43.286;23.360;2023-06-22T06:58:11;99551.88;;;27.08;56.40
79129;BME280;68529;43.286;23.360;2023-06-22T07:00:38;99551.78;;;27.28;55.90
79129;BME280;68529;43.286;23.360;2023-06-22T07:03:04;99556.56;;;27.43;55.19
79129;BME280;68529;43.286;23.360;2023-06-22T07:05:29;99563.81;;;27.60;55.59
79129;BME280;68529;43.286;23.360;2023-06-22T07:07:55;99561.66;;;27.82;55.02
79129;BME280;68529;43.286;23.360;2023-06-22T07:10:20;99558.81;;;28.01;54.43
79129;BME280;68529;43.286;23.360;2023-06-22T07:12:46;99550.19;;;28.15;53.07
79129;BME280;68529;43.286;23.360;2023-06-22T07:15:11;99557.59;;;28.30;53.59
79129;BME280;68529;43.286;23.360;2023-06-22T07:17:38;99558.50;;;28.39;52.76
79129;BME280;68529;43.286;23.360;2023-06-22T07:20:07;99552.16;;;28.56;52.65
79129;BME280;68529;43.286;23.360;2023-06-22T07:22:41;99547.06;;;28.71;52.84
79129;BME280;68529;43.286;23.360;2023-06-22T07:25:08;99540.50;;;28.81;52.47
79129;BME280;68529;43.286;23.360;2023-06-22T07:27:42;99551.00;;;28.84;51.78
79129;BME280;68529;43.286;23.360;2023-06-22T07:30:09;99545.28;;;28.87;52.58
79129;BME280;68529;43.286;23.360;2023-06-22T07:32:35;99549.72;;;28.97;51.09
79129;BME280;68529;43.286;23.360;2023-06-22T07:35:00;99556.16;;;29.04;50.21
79129;BME280;68529;43.286;23.360;2023-06-22T07:37:27;99555.34;;;29.03;50.17
79129;BME280;68529;43.286;23.360;2023-06-22T07:39:53;99548.75;;;29.06;51.38
79129;BME280;68529;43.286;23.360;2023-06-22T07:42:24;99556.59;;;29.17;50.97
79129;BME280;68529;43.286;23.360;2023-06-22T07:44:49;99551.66;;;29.20;51.80
79129;BME280;68529;43.286;23.360;2023-06-22T07:47:16;99551.59;;;29.30;50.23
79129;BME280;68529;43.286;23.360;2023-06-22T07:49:43;99557.19;;;29.36;49.57
79129;BME280;68529;43.286;23.360;2023-06-22T07:52:08;99550.75;;;29.37;49.88
79129;BME280;68529;43.286;23.360;2023-06-22T07:54:34;99547.72;;;29.40;49.82
79129;BME280;68529;43.286;23.360;2023-06-22T07:56:59;99543.34;;;29.48;49.79
79129;BME280;68529;43.286;23.360;2023-06-22T07:59:25;99540.81;;;29.54;49.52
79129;BME280;68529;43.286;23.360;2023-06-22T08:01:50;99539.81;;;29.55;49.27
79129;BME280;68529;43.286;23.360;2023-06-22T08:04:16;99534.72;;;29.60;49.48
79129;BME280;68529;43.286;23.360;2023-06-22T08:06:41;99534.94;;;29.67;49.26
79129;BME280;68529;43.286;23.360;2023-06-22T08:09:07;99530.53;;;29.74;49.80
79129;BME280;68529;43.286;23.360;2023-06-22T08:11:32;99534.13;;;29.82;48.81
79129;BME280;68529;43.286;23.360;2023-06-22T08:13:58;99528.69;;;29.82;47.89
79129;BME280;68529;43.286;23.360;2023-06-22T08:16:25;99533.78;;;29.85;47.99
79129;BME280;68529;43.286;23.360;2023-06-22T08:18:53;99529.56;;;29.91;47.66
79129;BME280;68529;43.286;23.360;2023-06-22T08:21:21;99538.34;;;29.93;49.86
79129;BME280;68529;43.286;23.360;2023-06-22T08:23:49;99533.97;;;29.92;48.16
79129;BME280;68529;43.286;23.360;2023-06-22T08:26:16;99532.94;;;29.93;48.68
79129;BME280;68529;43.286;23.360;2023-06-22T08:28:44;99534.81;;;30.00;49.07
79129;BME280;68529;43.286;23.360;2023-06-22T08:31:12;99533.97;;;30.16;48.57
79129;BME280;68529;43.286;23.360;2023-06-22T08:33:40;99537.00;;;30.29;48.17
79129;BME280;68529;43.286;23.360;2023-06-22T08:36:06;99537.19;;;30.20;47.16
79129;BME280;68529;43.286;23.360;2023-06-22T08:38:39;99534.50;;;30.04;48.19
79129;BME280;68529;43.286;23.360;2023-06-22T08:41:06;99533.78;;;30.10;48.22
79129;BME280;68529;43.286;23.360;2023-06-22T08:43:33;99537.69;;;30.31;49.77
79129;BME280;68529;43.286;23.360;2023-06-22T08:46:03;99535.84;;;30.48;47.73
79129;BME280;68529;43.286;23.360;2023-06-22T08:48:29;99524.66;;;30.51;47.15
79129;BME280;68529;43.286;23.360;2023-06-22T08:50:55;99526.28;;;30.60;47.05
79129;BME280;68529;43.286;23.360;2023-06-22T08:53:20;99519.88;;;30.61;46.44
79129;BME280;68529;43.286;23.360;2023-06-22T08:55:46;99518.31;;;30.67;46.56
79129;BME280;68529;43.286;23.360;2023-06-22T08:58:11;99520.03;;;30.68;45.93
79129;BME280;68529;43.286;23.360;2023-06-22T09:00:36;99520.16;;;30.74;47.82
79129;BME280;68529;43.286;23.360;2023-06-22T09:03:02;99525.34;;;30.92;47.25
79129;BME280;68529;43.286;23.360;2023-06-22T09:05:29;99520.81;;;30.92;45.04
79129;BME280;68529;43.286;23.360;2023-06-22T09:07:56;99517.09;;;30.77;44.99
79129;BME280;68529;43.286;23.360;2023-06-22T09:10:21;99513.22;;;30.72;44.93
79129;BME280;68529;43.286;23.360;2023-06-22T09:12:47;99514.59;;;30.68;45.77
79129;BME280;68529;43.286;23.360;2023-06-22T09:15:12;99513.19;;;30.80;47.04
79129;BME280;68529;43.286;23.360;2023-06-22T09:17:38;99509.25;;;30.98;47.54
79129;BME280;68529;43.286;23.360;2023-06-22T09:20:04;99512.25;;;31.11;46.70
79129;BME280;68529;43.286;23.360;2023-06-22T09:22:31;99508.81;;;31.18;46.75
79129;BME280;68529;43.286;23.360;2023-06-22T09:24:58;99509.44;;;31.28;45.47
79129;BME280;68529;43.286;23.360;2023-06-22T09:27:25;99504.66;;;31.30;45.90
79129;BME280;68529;43.286;23.360;2023-06-22T09:29:50;99505.00;;;31.35;45.51
79129;BME280;68529;43.286;23.360;2023-06-22T09:32:17;99503.81;;;31.37;45.15
79129;BME280;68529;43.286;23.360;2023-06-22T09:34:48;99501.56;;;31.41;45.25
79129;BME280;68529;43.286;23.360;2023-06-22T09:37:14;99499.16;;;31.46;44.08
79129;BME280;68529;43.286;23.360;2023-06-22T09:39:42;99510.38;;;31.51;44.52
79129;BME280;68529;43.286;23.360;2023-06-22T09:42:11;99500.47;;;31.58;44.96
79129;BME280;68529;43.286;23.360;2023-06-22T09:44:38;99505.66;;;31.67;43.82
79129;BME280;68529;43.286;23.360;2023-06-22T09:47:04;99508.03;;;31.70;43.72
79129;BME280;68529;43.286;23.360;2023-06-22T09:49:30;99507.47;;;31.75;43.64
79129;BME280;68529;43.286;23.360;2023-06-22T09:51:56;99509.94;;;31.85;44.69
79129;BME280;68529;43.286;23.360;2023-06-22T09:54:23;99509.88;;;31.93;44.21
79129;BME280;68529;43.286;23.360;2023-06-22T09:56:48;99509.31;;;31.97;43.76
79129;BME280;68529;43.286;23.360;2023-06-22T09:59:13;99508.03;;;31.93;43.22
79129;BME280;68529;43.286;23.360;2023-06-22T10:01:40;99503.53;;;32.00;43.67
79129;BME280;68529;43.286;23.360;2023-06-22T10:04:05;99500.47;;;32.03;42.33
79129;BME280;68529;43.286;23.360;2023-06-22T10:06:32;99504.34;;;32.09;43.04
79129;BME280;68529;43.286;23.360;2023-06-22T10:08:57;99501.91;;;32.14;43.28
79129;BME280;68529;43.286;23.360;2023-06-22T10:11:23;99501.69;;;32.01;44.10
79129;BME280;68529;43.286;23.360;2023-06-22T10:13:54;99497.97;;;32.02;43.99
79129;BME280;68529;43.286;23.360;2023-06-22T10:16:19;99499.63;;;32.03;44.79
79129;BME280;68529;43.286;23.360;2023-06-22T10:18:45;99500.69;;;32.16;44.02
79129;BME280;68529;43.286;23.360;2023-06-22T10:21:11;99501.13;;;32.05;45.77
79129;BME280;68529;43.286;23.360;2023-06-22T10:23:36;99492.84;;;31.99;45.85
79129;BME280;68529;43.286;23.360;2023-06-22T10:26:01;99497.88;;;31.87;45.56
79129;BME280;68529;43.286;23.360;2023-06-22T10:28:27;99505.16;;;31.64;45.37
79129;BME280;68529;43.286;23.360;2023-06-22T10:30:52;99506.63;;;31.44;44.53
79129;BME280;68529;43.286;23.360;2023-06-22T10:33:21;99501.25;;;31.36;46.05
79129;BME280;68529;43.286;23.360;2023-06-22T10:35:46;99500.88;;;31.39;46.54
79129;BME280;68529;43.286;23.360;2023-06-22T10:38:12;99499.22;;;31.38;47.08
79129;BME280;68529;43.286;23.360;2023-06-22T10:40:37;99501.03;;;31.45;46.78
79129;BME280;68529;43.286;23.360;2023-06-22T10:43:04;99502.72;;;31.46;47.38
79129;BME280;68529;43.286;23.360;2023-06-22T10:45:30;99497.66;;;31.43;47.85
79129;BME280;68529;43.286;23.360;2023-06-22T10:47:55;99500.28;;;31.29;48.47
79129;BME280;68529;43.286;23.360;2023-06-22T10:50:21;99501.75;;;31.08;48.13
79129;BME280;68529;43.286;23.360;2023-06-22T10:52:49;99509.63;;;30.95;48.18
79129;BME280;68529;43.286;23.360;2023-06-22T10:55:15;99507.72;;;30.88;48.21
79129;BME280;68529;43.286;23.360;2023-06-22T10:57:42;99511.97;;;30.82;48.31
79129;BME280;68529;43.286;23.360;2023-06-22T11:00:09;99516.78;;;30.72;48.17
79129;BME280;68529;43.286;23.360;2023-06-22T11:02:36;99516.13;;;30.62;47.87
79129;BME280;68529;43.286;23.360;2023-06-22T11:05:01;99516.97;;;30.54;47.97
79129;BME280;68529;43.286;23.360;2023-06-22T11:07:28;99522.41;;;30.54;49.23
79129;BME280;68529;43.286;23.360;2023-06-22T11:09:54;99522.94;;;30.50;48.77
79129;BME280;68529;43.286;23.360;2023-06-22T11:12:20;99516.47;;;30.35;48.76
79129;BME280;68529;43.286;23.360;2023-06-22T11:14:45;99522.63;;;30.37;48.95
79129;BME280;68529;43.286;23.360;2023-06-22T11:17:11;99521.09;;;30.34;48.73
79129;BME280;68529;43.286;23.360;2023-06-22T11:19:36;99523.31;;;30.39;49.17
79129;BME280;68529;43.286;23.360;2023-06-22T11:22:02;99520.59;;;30.39;49.87
79129;BME280;68529;43.286;23.360;2023-06-22T11:24:27;99534.44;;;30.36;49.65
79129;BME280;68529;43.286;23.360;2023-06-22T11:26:53;99525.81;;;30.40;50.20
79129;BME280;68529;43.286;23.360;2023-06-22T11:29:18;99522.44;;;30.38;49.88
79129;BME280;68529;43.286;23.360;2023-06-22T11:31:43;99517.53;;;30.42;49.63
79129;BME280;68529;43.286;23.360;2023-06-22T11:34:09;99515.84;;;30.41;49.66
79129;BME280;68529;43.286;23.360;2023-06-22T11:36:34;99515.34;;;30.45;50.38
79129;BME280;68529;43.286;23.360;2023-06-22T11:39:00;99512.94;;;30.50;50.03
79129;BME280;68529;43.286;23.360;2023-06-22T11:41:26;99510.34;;;30.73;49.69
79129;BME280;68529;43.286;23.360;2023-06-22T11:43:51;99511.66;;;30.77;49.55
79129;BME280;68529;43.286;23.360;2023-06-22T11:46:17;99511.31;;;30.80;49.61
79129;BME280;68529;43.286;23.360;2023-06-22T11:48:42;99506.56;;;30.90;49.46
79129;BME280;68529;43.286;23.360;2023-06-22T11:51:08;99514.34;;;30.93;49.98
79129;BME280;68529;43.286;23.360;2023-06-22T11:53:33;99505.69;;;30.90;49.82
79129;BME280;68529;43.286;23.360;2023-06-22T11:56:00;99512.38;;;30.79;50.10
79129;BME280;68529;43.286;23.360;2023-06-22T11:58:26;99502.56;;;30.62;50.56
79129;BME280;68529;43.286;23.360;2023-06-22T12:00:52;99508.38;;;30.51;50.77
79129;BME280;68529;43.286;23.360;2023-06-22T12:03:18;99519.59;;;30.40;50.77
79129;BME280;68529;43.286;23.360;2023-06-22T12:05:44;99515.16;;;30.31;51.00
79129;BME280;68529;43.286;23.360;2023-06-22T12:08:09;99517.03;;;30.22;50.87
79129;BME280;68529;43.286;23.360;2023-06-22T12:10:34;99513.47;;;30.22;51.46
79129;BME280;68529;43.286;23.360;2023-06-22T12:13:00;99515.50;;;30.20;52.42
79129;BME280;68529;43.286;23.360;2023-06-22T12:15:26;99517.22;;;30.21;52.03
79129;BME280;68529;43.286;23.360;2023-06-22T12:17:52;99513.66;;;30.20;51.62
79129;BME280;68529;43.286;23.360;2023-06-22T12:20:17;99513.31;;;30.23;52.17
79129;BME280;68529;43.286;23.360;2023-06-22T12:22:44;99506.69;;;30.26;52.25
79129;BME280;68529;43.286;23.360;2023-06-22T12:25:12;99506.34;;;30.29;52.75
79129;BME280;68529;43.286;23.360;2023-06-22T12:27:37;99507.03;;;30.31;53.11
79129;BME280;68529;43.286;23.360;2023-06-22T12:30:04;99497.69;;;30.49;52.11
79129;BME280;68529;43.286;23.360;2023-06-22T12:32:29;99496.81;;;30.57;52.03
79129;BME280;68529;43.286;23.360;2023-06-22T12:34:56;99489.38;;;30.59;51.26
79129;BME280;68529;43.286;23.360;2023-06-22T12:37:22;99490.56;;;30.56;51.95
79129;BME280;68529;43.286;23.360;2023-06-22T12:39:47;99490.38;;;30.58;51.86
79129;BME280;68529;43.286;23.360;2023-06-22T12:42:13;99487.84;;;30.56;51.21
79129;BME280;68529;43.286;23.360;2023-06-22T12:44:38;99488.47;;;30.67;51.31
79129;BME280;68529;43.286;23.360;2023-06-22T12:47:07;99484.75;;;30.68;51.42
79129;BME280;68529;43.286;23.360;2023-06-22T12:49:37;99497.94;;;30.79;52.15
79129;BME280;68529;43.286;23.360;2023-06-22T12:52:08;99484.84;;;30.82;50.61